Galveston Bay — WX9281 — position and weather

sailwx.info

Track history (hours):
 
Tides and Currents Weather Stations Pressure Air Temp Water Temp Dewpoint Dewpoint Depression Visibility Wind Speed Wind Dir Waves Ship Positions

Galveston Bay

Owner: OMEGA PROTEIN INC., Moss Point, MS. More information available from US FCC via Universal Licensing System and Coast Guard Vessel Documentation Center.

Last reported at 2017-Sep-22 02:00 UTC. Time now 2017-Sep-23 07:19 UTC.
Position N 29°49' W 092°08'.

Length 49 m; draft 3.5 m.

Type: Fishing. MMSI: 367108840.

Date/timePositionNaut miles runAvg speedWind from/ knotsBaromVisibWave heightAir tempDewpointWater temp
2017-Sep-22 02:00N 29°49' W 092°08'2 4.8
2017-Sep-22 01:30N 29°47' W 092°09'5 9.3
2017-Sep-22 01:00N 29°45' W 092°13'7 0.2
2017-Sep-20 09:13N 29°38' W 092°16'2 8.5
2017-Sep-20 08:58N 29°40' W 092°15'4 8.7
2017-Sep-20 08:30N 29°44' W 092°14'4 9.0
2017-Sep-20 08:00N 29°47' W 092°10'3 5.6
2017-Sep-20 07:30N 29°49' W 092°08'0 0.1
2017-Sep-20 07:00N 29°49' W 092°08'0 0.0
2017-Sep-20 06:30N 29°49' W 092°08'0 0.0
2017-Sep-20 06:00N 29°49' W 092°08'0 0.0
2017-Sep-20 05:30N 29°49' W 092°08'0 0.0
2017-Sep-20 05:00N 29°49' W 092°08'0 0.0
2017-Sep-20 04:30N 29°49' W 092°08'0 0.0
2017-Sep-20 04:00N 29°49' W 092°08'0 0.0
2017-Sep-20 03:30N 29°49' W 092°08'0 0.0
2017-Sep-20 03:00N 29°49' W 092°08'1 2.7
2017-Sep-20 02:30N 29°48' W 092°08'3 6.6
2017-Sep-20 02:00N 29°46' W 092°11'4 8.5
2017-Sep-20 01:30N 29°43' W 092°15'5 0.1
2017-Sep-18 01:33N 29°38' W 092°16'1 9.4
2017-Sep-18 01:30N 29°39' W 092°16'5 9.5
2017-Sep-18 01:01N 29°43' W 092°15'510.1
2017-Sep-18 00:31N 29°47' W 092°10'3 6.5
2017-Sep-18 00:00N 29°49' W 092°08'1 2.0
2017-Sep-17 23:31N 29°48' W 092°08'1 2.0
2017-Sep-17 23:01N 29°49' W 092°08'0 0.0
2017-Sep-17 22:27N 29°49' W 092°08'0 0.0
2017-Sep-17 21:19N 29°49' W 092°08'0 0.0
2017-Sep-17 20:58N 29°49' W 092°08'0 0.0
2017-Sep-17 20:30N 29°49' W 092°08'0 0.0
2017-Sep-17 18:50N 29°49' W 092°08'0 0.0
2017-Sep-17 18:28N 29°49' W 092°08'0 0.0
2017-Sep-17 17:58N 29°49' W 092°08'0 0.0
2017-Sep-17 17:29N 29°49' W 092°08'0 0.0
2017-Sep-17 17:00N 29°49' W 092°08'0 0.0
2017-Sep-17 16:30N 29°49' W 092°08'0 0.0
2017-Sep-17 16:00N 29°49' W 092°08'0 0.0
2017-Sep-17 08:20N 29°49' W 092°08'0 0.0
2017-Sep-17 07:37N 29°49' W 092°08'0 0.0
2017-Sep-17 07:29N 29°49' W 092°08'0 0.0
2017-Sep-17 07:00N 29°49' W 092°08'0 0.0
2017-Sep-17 06:30N 29°49' W 092°08'0 0.0
2017-Sep-17 06:00N 29°49' W 092°08'0 0.0
2017-Sep-17 05:31N 29°49' W 092°08'0 0.0
2017-Sep-17 04:59N 29°49' W 092°08'0 0.0
2017-Sep-17 04:30N 29°49' W 092°08'0 0.0
2017-Sep-17 04:00N 29°49' W 092°08'0 0.0
2017-Sep-17 03:30N 29°49' W 092°08'0 0.0
2017-Sep-17 03:00N 29°49' W 092°08'0 0.0
2017-Sep-17 02:31N 29°49' W 092°08'0 0.0
2017-Sep-17 02:00N 29°49' W 092°08'0 0.0
2017-Sep-17 01:31N 29°49' W 092°08'0 0.0
2017-Sep-17 01:00N 29°49' W 092°08'0 0.0
2017-Sep-17 00:31N 29°49' W 092°08'0 0.0
2017-Sep-17 00:00N 29°49' W 092°08'0 0.0
2017-Sep-16 23:30N 29°49' W 092°08'0 0.0
2017-Sep-16 22:57N 29°49' W 092°08'0 0.0
2017-Sep-16 20:32N 29°49' W 092°08'0 0.0
2017-Sep-16 18:09N 29°49' W 092°08'0 0.0
2017-Sep-16 17:11N 29°49' W 092°08'0 0.0
2017-Sep-16 16:40N 29°49' W 092°08'0 0.0
2017-Sep-16 16:28N 29°49' W 092°08'0 0.0
2017-Sep-16 15:57N 29°49' W 092°08'0 0.0
2017-Sep-16 15:30N 29°49' W 092°08'0 0.0
2017-Sep-16 14:59N 29°49' W 092°08'0 0.0
2017-Sep-16 14:15N 29°49' W 092°08'0 0.0
2017-Sep-16 11:22N 29°49' W 092°08'0 0.0
2017-Sep-16 11:00N 29°49' W 092°08'0 0.0
2017-Sep-16 10:27N 29°49' W 092°08'0 0.0
2017-Sep-16 10:00N 29°49' W 092°08'0 0.0
2017-Sep-16 09:30N 29°49' W 092°08'0 0.0
2017-Sep-16 09:00N 29°49' W 092°08'0 0.0
2017-Sep-16 08:31N 29°49' W 092°08'0 0.0
2017-Sep-16 08:00N 29°49' W 092°08'0 0.0
2017-Sep-16 07:30N 29°49' W 092°08'0 0.0
2017-Sep-16 07:00N 29°49' W 092°08'0 0.0
2017-Sep-16 06:29N 29°49' W 092°08'0 0.0
2017-Sep-16 06:00N 29°49' W 092°08'0 0.0
2017-Sep-16 05:30N 29°49' W 092°08'0 0.0
2017-Sep-16 05:01N 29°49' W 092°08'0 0.0
2017-Sep-16 04:30N 29°49' W 092°08'0 0.0
2017-Sep-16 04:00N 29°49' W 092°08'0 0.0
2017-Sep-16 03:30N 29°49' W 092°08'0 0.0
2017-Sep-16 03:00N 29°49' W 092°08'0 0.0
2017-Sep-16 02:30N 29°49' W 092°08'0 0.0
2017-Sep-16 02:00N 29°49' W 092°08'0 0.0
2017-Sep-16 01:28N 29°49' W 092°08'0 0.0
2017-Sep-16 01:00N 29°49' W 092°08'0 0.3
2017-Sep-16 00:30N 29°49' W 092°08'0 0.0
2017-Sep-16 00:00N 29°49' W 092°08'0 0.0
2017-Sep-15 23:30N 29°49' W 092°08'0 0.0
2017-Sep-15 23:00N 29°49' W 092°08'0 0.0
2017-Sep-15 22:30N 29°49' W 092°08'0 0.0
2017-Sep-15 22:00N 29°49' W 092°08'0 0.0
2017-Sep-15 21:30N 29°49' W 092°08'0 0.0
2017-Sep-15 21:00N 29°49' W 092°08'1 1.7
2017-Sep-15 20:30N 29°48' W 092°08'3 5.8
2017-Sep-15 20:00N 29°46' W 092°10'5 9.5
2017-Sep-15 19:30N 29°43' W 092°15'5 0.2
2017-Sep-14 11:01N 29°38' W 092°16'010.1
2017-Sep-14 11:00N 29°38' W 092°16'510.4
2017-Sep-14 10:30N 29°44' W 092°15'510.0
2017-Sep-14 10:00N 29°47' W 092°10'3 5.7
2017-Sep-14 09:29N 29°49' W 092°08'0 0.2
2017-Sep-14 06:40N 29°49' W 092°08'0 0.0
2017-Sep-14 06:20N 29°49' W 092°08'0 0.3
2017-Sep-14 06:00N 29°49' W 092°08'0 0.0
2017-Sep-14 05:30N 29°49' W 092°08'0 0.0
2017-Sep-14 05:00N 29°49' W 092°08'0 0.0
2017-Sep-14 04:30N 29°49' W 092°08'0 0.0
2017-Sep-14 04:00N 29°49' W 092°08'0 0.0
2017-Sep-14 03:30N 29°49' W 092°08'0 0.0
2017-Sep-14 03:00N 29°49' W 092°08'0 0.0
2017-Sep-14 02:30N 29°49' W 092°08'0 0.0
2017-Sep-14 02:00N 29°49' W 092°08'0 0.2
2017-Sep-14 01:30N 29°49' W 092°08'0 0.0
2017-Sep-14 01:00N 29°49' W 092°08'1 1.5
2017-Sep-14 00:30N 29°49' W 092°08'2 4.7
2017-Sep-14 00:00N 29°47' W 092°10'5 9.3
2017-Sep-13 23:30N 29°44' W 092°14'  
Track history (hours):
 
Tides and Currents Weather Stations Pressure Air Temp Water Temp Dewpoint Dewpoint Depression Visibility Wind Speed Wind Dir Waves Ship Positions

Galveston Bay

Owner: OMEGA PROTEIN INC., Moss Point, MS. More information available from US FCC via Universal Licensing System and Coast Guard Vessel Documentation Center.

Last reported at 2017-Sep-22 02:00 UTC. Time now 2017-Sep-23 07:19 UTC.
Position N 29°49' W 092°08'.

Length 49 m; draft 3.5 m.

Type: Fishing. MMSI: 367108840.

Date/timePositionNaut miles runAvg speedWind from/ knotsBaromVisibWave heightAir tempDewpointWater temp
2017-Sep-22 02:00N 29°49' W 092°08'2 4.8
2017-Sep-22 01:30N 29°47' W 092°09'5 9.3
2017-Sep-22 01:00N 29°45' W 092°13'7 0.2
2017-Sep-20 09:13N 29°38' W 092°16'2 8.5
2017-Sep-20 08:58N 29°40' W 092°15'4 8.7
2017-Sep-20 08:30N 29°44' W 092°14'4 9.0
2017-Sep-20 08:00N 29°47' W 092°10'3 5.6
2017-Sep-20 07:30N 29°49' W 092°08'0 0.1
2017-Sep-20 07:00N 29°49' W 092°08'0 0.0
2017-Sep-20 06:30N 29°49' W 092°08'0 0.0
2017-Sep-20 06:00N 29°49' W 092°08'0 0.0
2017-Sep-20 05:30N 29°49' W 092°08'0 0.0
2017-Sep-20 05:00N 29°49' W 092°08'0 0.0
2017-Sep-20 04:30N 29°49' W 092°08'0 0.0
2017-Sep-20 04:00N 29°49' W 092°08'0 0.0
2017-Sep-20 03:30N 29°49' W 092°08'0 0.0
2017-Sep-20 03:00N 29°49' W 092°08'1 2.7
2017-Sep-20 02:30N 29°48' W 092°08'3 6.6
2017-Sep-20 02:00N 29°46' W 092°11'4 8.5
2017-Sep-20 01:30N 29°43' W 092°15'5 0.1
2017-Sep-18 01:33N 29°38' W 092°16'1 9.4
2017-Sep-18 01:30N 29°39' W 092°16'5 9.5
2017-Sep-18 01:01N 29°43' W 092°15'510.1
2017-Sep-18 00:31N 29°47' W 092°10'3 6.5
2017-Sep-18 00:00N 29°49' W 092°08'1 2.0
2017-Sep-17 23:31N 29°48' W 092°08'1 2.0
2017-Sep-17 23:01N 29°49' W 092°08'0 0.0
2017-Sep-17 22:27N 29°49' W 092°08'0 0.0
2017-Sep-17 21:19N 29°49' W 092°08'0 0.0
2017-Sep-17 20:58N 29°49' W 092°08'0 0.0
2017-Sep-17 20:30N 29°49' W 092°08'0 0.0
2017-Sep-17 18:50N 29°49' W 092°08'0 0.0
2017-Sep-17 18:28N 29°49' W 092°08'0 0.0
2017-Sep-17 17:58N 29°49' W 092°08'0 0.0
2017-Sep-17 17:29N 29°49' W 092°08'0 0.0
2017-Sep-17 17:00N 29°49' W 092°08'0 0.0
2017-Sep-17 16:30N 29°49' W 092°08'0 0.0
2017-Sep-17 16:00N 29°49' W 092°08'0 0.0
2017-Sep-17 08:20N 29°49' W 092°08'0 0.0
2017-Sep-17 07:37N 29°49' W 092°08'0 0.0
2017-Sep-17 07:29N 29°49' W 092°08'0 0.0
2017-Sep-17 07:00N 29°49' W 092°08'0 0.0
2017-Sep-17 06:30N 29°49' W 092°08'0 0.0
2017-Sep-17 06:00N 29°49' W 092°08'0 0.0
2017-Sep-17 05:31N 29°49' W 092°08'0 0.0
2017-Sep-17 04:59N 29°49' W 092°08'0 0.0
2017-Sep-17 04:30N 29°49' W 092°08'0 0.0
2017-Sep-17 04:00N 29°49' W 092°08'0 0.0
2017-Sep-17 03:30N 29°49' W 092°08'0 0.0
2017-Sep-17 03:00N 29°49' W 092°08'0 0.0
2017-Sep-17 02:31N 29°49' W 092°08'0 0.0
2017-Sep-17 02:00N 29°49' W 092°08'0 0.0
2017-Sep-17 01:31N 29°49' W 092°08'0 0.0
2017-Sep-17 01:00N 29°49' W 092°08'0 0.0
2017-Sep-17 00:31N 29°49' W 092°08'0 0.0
2017-Sep-17 00:00N 29°49' W 092°08'0 0.0
2017-Sep-16 23:30N 29°49' W 092°08'0 0.0
2017-Sep-16 22:57N 29°49' W 092°08'0 0.0
2017-Sep-16 20:32N 29°49' W 092°08'0 0.0
2017-Sep-16 18:09N 29°49' W 092°08'0 0.0
2017-Sep-16 17:11N 29°49' W 092°08'0 0.0
2017-Sep-16 16:40N 29°49' W 092°08'0 0.0
2017-Sep-16 16:28N 29°49' W 092°08'0 0.0
2017-Sep-16 15:57N 29°49' W 092°08'0 0.0
2017-Sep-16 15:30N 29°49' W 092°08'0 0.0
2017-Sep-16 14:59N 29°49' W 092°08'0 0.0
2017-Sep-16 14:15N 29°49' W 092°08'0 0.0
2017-Sep-16 11:22N 29°49' W 092°08'0 0.0
2017-Sep-16 11:00N 29°49' W 092°08'0 0.0
2017-Sep-16 10:27N 29°49' W 092°08'0 0.0
2017-Sep-16 10:00N 29°49' W 092°08'0 0.0
2017-Sep-16 09:30N 29°49' W 092°08'0 0.0
2017-Sep-16 09:00N 29°49' W 092°08'0 0.0
2017-Sep-16 08:31N 29°49' W 092°08'0 0.0
2017-Sep-16 08:00N 29°49' W 092°08'0 0.0
2017-Sep-16 07:30N 29°49' W 092°08'0 0.0
2017-Sep-16 07:00N 29°49' W 092°08'0 0.0
2017-Sep-16 06:29N 29°49' W 092°08'0 0.0
2017-Sep-16 06:00N 29°49' W 092°08'0 0.0
2017-Sep-16 05:30N 29°49' W 092°08'0 0.0
2017-Sep-16 05:01N 29°49' W 092°08'0 0.0
2017-Sep-16 04:30N 29°49' W 092°08'0 0.0
2017-Sep-16 04:00N 29°49' W 092°08'0 0.0
2017-Sep-16 03:30N 29°49' W 092°08'0 0.0
2017-Sep-16 03:00N 29°49' W 092°08'0 0.0
2017-Sep-16 02:30N 29°49' W 092°08'0 0.0
2017-Sep-16 02:00N 29°49' W 092°08'0 0.0
2017-Sep-16 01:28N 29°49' W 092°08'0 0.0
2017-Sep-16 01:00N 29°49' W 092°08'0 0.3
2017-Sep-16 00:30N 29°49' W 092°08'0 0.0
2017-Sep-16 00:00N 29°49' W 092°08'0 0.0
2017-Sep-15 23:30N 29°49' W 092°08'0 0.0
2017-Sep-15 23:00N 29°49' W 092°08'0 0.0
2017-Sep-15 22:30N 29°49' W 092°08'0 0.0
2017-Sep-15 22:00N 29°49' W 092°08'0 0.0
2017-Sep-15 21:30N 29°49' W 092°08'0 0.0
2017-Sep-15 21:00N 29°49' W 092°08'1 1.7
2017-Sep-15 20:30N 29°48' W 092°08'3 5.8
2017-Sep-15 20:00N 29°46' W 092°10'5 9.5
2017-Sep-15 19:30N 29°43' W 092°15'5 0.2
2017-Sep-14 11:01N 29°38' W 092°16'010.1
2017-Sep-14 11:00N 29°38' W 092°16'510.4
2017-Sep-14 10:30N 29°44' W 092°15'510.0
2017-Sep-14 10:00N 29°47' W 092°10'3 5.7
2017-Sep-14 09:29N 29°49' W 092°08'0 0.2
2017-Sep-14 06:40N 29°49' W 092°08'0 0.0
2017-Sep-14 06:20N 29°49' W 092°08'0 0.3
2017-Sep-14 06:00N 29°49' W 092°08'0 0.0
2017-Sep-14 05:30N 29°49' W 092°08'0 0.0
2017-Sep-14 05:00N 29°49' W 092°08'0 0.0
2017-Sep-14 04:30N 29°49' W 092°08'0 0.0
2017-Sep-14 04:00N 29°49' W 092°08'0 0.0
2017-Sep-14 03:30N 29°49' W 092°08'0 0.0
2017-Sep-14 03:00N 29°49' W 092°08'0 0.0
2017-Sep-14 02:30N 29°49' W 092°08'0 0.0
2017-Sep-14 02:00N 29°49' W 092°08'0 0.2
2017-Sep-14 01:30N 29°49' W 092°08'0 0.0
2017-Sep-14 01:00N 29°49' W 092°08'1 1.5
2017-Sep-14 00:30N 29°49' W 092°08'2 4.7
2017-Sep-14 00:00N 29°47' W 092°10'5 9.3
2017-Sep-13 23:30N 29°44' W 092°14'  

Dump ship's entire track history